Time;durP1;ratioP1;P1;durP2;ratioP2;P2;SDS_P1;SDS_P2;PMS_P1;PMS_P2;Temp;Humidity;BMP_temperature;BMP_pressure;BME280_temperature;BME280_humidity;BME280_pressure;Samples;Min_cycle;Max_cycle;Signal;HPM_P1;HPM_P2
2021/07/07 00:00:20;;;;;;;3.13;0.75;;;;;;;;;;5082152;28;20440;-50
2021/07/07 00:02:46;;;;;;;1.33;0.50;;;;;;;;;;5031974;28;1095375;-48
2021/07/07 00:05:12;;;;;;;2.88;1.10;;;;;;;;;;5078520;28;20093;-50
2021/07/07 00:07:38;;;;;;;1.98;0.85;;;;;;;;;;5084121;28;20493;-54
2021/07/07 00:10:05;;;;;;;2.42;0.90;;;;;;;;;;5080615;28;20107;-51
2021/07/07 00:12:31;;;;;;;4.45;1.05;;;;;;;;;;5088324;28;20479;-52
2021/07/07 00:14:56;;;;;;;2.90;1.08;;;;;;;;;;5085167;28;20020;-52
2021/07/07 00:17:21;;;;;;;1.52;1.00;;;;;;;;;;5087511;28;20026;-53
2021/07/07 00:19:46;;;;;;;1.70;0.93;;;;;;;;;;5086326;28;20107;-50
2021/07/07 00:22:14;;;;;;;1.30;1.00;;;;;;;;;;5068960;28;20021;-53
2021/07/07 00:24:39;;;;;;;1.88;0.90;;;;;;;;;;5084441;28;20035;-48
2021/07/07 00:27:04;;;;;;;2.58;0.80;;;;;;;;;;5082891;28;20244;-49
2021/07/07 00:29:29;;;;;;;2.33;0.93;;;;;;;;;;5085547;28;20016;-50
2021/07/07 00:31:55;;;;;;;2.92;0.90;;;;;;;;;;5086621;28;20435;-53
2021/07/07 00:34:20;;;;;;;2.47;1.13;;;;;;;;;;5079967;28;20028;-52
2021/07/07 00:36:45;;;;;;;1.60;1.00;;;;;;;;;;5082461;28;20020;-51
2021/07/07 00:39:10;;;;;;;2.25;1.10;;;;;;;;;;5091887;28;20082;-54
2021/07/07 00:41:36;;;;;;;1.70;0.95;;;;;;;;;;5083303;28;20020;-51
2021/07/07 00:44:01;;;;;;;2.65;1.40;;;;;;;;;;5086204;28;20023;-51
2021/07/07 00:46:26;;;;;;;1.17;0.60;;;;;;;;;;5076171;28;20062;-53
2021/07/07 00:48:51;;;;;;;1.67;0.60;;;;;;;;;;5086985;28;20063;-53
2021/07/07 00:51:17;;;;;;;0.95;0.90;;;;;;;;;;5089021;28;20471;-53
2021/07/07 00:53:43;;;;;;;0.80;0.40;;;;;;;;;;5088548;28;20031;-49
2021/07/07 00:56:09;;;;;;;0.60;0.30;;;;;;;;;;5084754;28;20013;-50
2021/07/07 00:58:36;;;;;;;0.75;0.20;;;;;;;;;;5076323;28;20047;-52
2021/07/07 01:01:02;;;;;;;1.20;0.40;;;;;;;;;;5075394;28;20024;-49
2021/07/07 01:03:27;;;;;;;1.00;0.30;;;;;;;;;;5086569;28;20052;-50
2021/07/07 01:05:53;;;;;;;1.08;0.30;;;;;;;;;;5087580;28;20040;-50
2021/07/07 01:08:18;;;;;;;1.60;0.30;;;;;;;;;;5082382;28;20025;-51
2021/07/07 01:10:43;;;;;;;2.70;0.50;;;;;;;;;;5072313;28;20323;-49
2021/07/07 01:13:08;;;;;;;1.30;0.30;;;;;;;;;;5092340;28;20024;-54
2021/07/07 01:15:35;;;;;;;1.05;0.30;;;;;;;;;;5093761;28;20012;-51
2021/07/07 01:18:01;;;;;;;1.13;0.40;;;;;;;;;;5091391;28;20020;-53
2021/07/07 01:20:26;;;;;;;1.42;0.40;;;;;;;;;;5093032;28;20027;-49
2021/07/07 01:22:52;;;;;;;0.60;0.20;;;;;;;;;;5086266;28;20467;-51
2021/07/07 01:25:17;;;;;;;0.65;0.40;;;;;;;;;;5093579;28;20016;-49
2021/07/07 01:27:44;;;;;;;2.15;0.30;;;;;;;;;;5081650;28;20028;-53
2021/07/07 01:30:11;;;;;;;0.70;0.40;;;;;;;;;;5091320;28;20150;-50
2021/07/07 01:32:36;;;;;;;0.98;0.40;;;;;;;;;;5088863;28;20031;-52
2021/07/07 01:35:03;;;;;;;2.13;0.30;;;;;;;;;;5089752;28;20020;-50
2021/07/07 01:37:29;;;;;;;0.63;0.30;;;;;;;;;;5082969;28;20012;-52
2021/07/07 01:39:54;;;;;;;0.70;0.50;;;;;;;;;;5075367;28;20364;-50
2021/07/07 01:42:20;;;;;;;2.65;0.40;;;;;;;;;;5090415;28;20039;-50
2021/07/07 01:44:45;;;;;;;1.33;0.38;;;;;;;;;;5086735;28;20089;-48
2021/07/07 01:47:10;;;;;;;1.35;0.68;;;;;;;;;;5089744;28;20027;-53
2021/07/07 01:49:35;;;;;;;2.25;0.50;;;;;;;;;;5077046;28;20094;-53
2021/07/07 01:52:01;;;;;;;3.70;0.63;;;;;;;;;;5071305;28;20048;-49
2021/07/07 01:54:26;;;;;;;0.90;0.40;;;;;;;;;;5078360;28;20025;-49
2021/07/07 01:56:51;;;;;;;1.92;0.68;;;;;;;;;;5082285;28;20091;-52
2021/07/07 01:59:16;;;;;;;1.08;0.65;;;;;;;;;;5076682;28;20064;-48
2021/07/07 02:01:42;;;;;;;2.85;0.50;;;;;;;;;;5073866;28;20025;-47
2021/07/07 02:04:07;;;;;;;0.63;0.50;;;;;;;;;;5085802;28;20054;-50
2021/07/07 02:06:32;;;;;;;2.55;0.65;;;;;;;;;;5091922;28;20474;-49
2021/07/07 02:08:58;;;;;;;0.35;0.32;;;;;;;;;;5091042;28;20081;-51
2021/07/07 02:11:23;;;;;;;0.95;0.38;;;;;;;;;;5081390;28;20500;-51
2021/07/07 02:13:48;;;;;;;2.78;0.40;;;;;;;;;;5085832;28;20023;-48
2021/07/07 02:16:13;;;;;;;2.03;0.60;;;;;;;;;;5090721;28;20020;-48
2021/07/07 02:18:39;;;;;;;1.48;0.55;;;;;;;;;;5092781;28;20108;-54
2021/07/07 02:21:04;;;;;;;1.25;0.47;;;;;;;;;;5088787;28;20032;-52
2021/07/07 02:23:29;;;;;;;1.40;0.20;;;;;;;;;;5092633;28;20490;-52
2021/07/07 02:25:55;;;;;;;1.23;0.32;;;;;;;;;;5091821;28;20035;-51
2021/07/07 02:28:26;;;;;;;0.55;0.30;;;;;;;;;;5091033;28;20391;-49
2021/07/07 02:30:55;;;;;;;0.60;0.30;;;;;;;;;;5076682;28;20081;-49
2021/07/07 02:33:22;;;;;;;1.50;0.30;;;;;;;;;;5092618;28;20020;-50
2021/07/07 02:35:47;;;;;;;2.30;0.40;;;;;;;;;;5082591;28;20028;-53
2021/07/07 02:38:15;;;;;;;1.35;0.30;;;;;;;;;;5084087;28;20364;-52
2021/07/07 02:40:40;;;;;;;2.97;0.30;;;;;;;;;;5080878;28;20099;-48
2021/07/07 02:43:07;;;;;;;1.00;0.35;;;;;;;;;;5090791;28;20104;-52
2021/07/07 02:45:32;;;;;;;1.20;0.30;;;;;;;;;;5085030;28;20031;-54
2021/07/07 02:47:58;;;;;;;1.52;0.30;;;;;;;;;;5076083;28;20025;-52
2021/07/07 02:50:23;;;;;;;2.75;0.50;;;;;;;;;;5082411;28;20016;-53
2021/07/07 02:52:50;;;;;;;1.63;0.30;;;;;;;;;;5088862;28;20514;-51
2021/07/07 02:55:16;;;;;;;2.08;0.30;;;;;;;;;;5078227;28;20032;-52
2021/07/07 02:58:24;;;;;;;1.30;0.25;;;;;;;;;;5086075;28;20353;-50
2021/07/07 03:00:34;;;;;;;2.13;0.22;;;;;;;;;;5076932;28;20400;-51
2021/07/07 03:03:05;;;;;;;1.50;0.30;;;;;;;;;;5090400;28;20048;-47
2021/07/07 03:05:31;;;;;;;0.93;0.30;;;;;;;;;;5077968;28;20032;-53
2021/07/07 03:07:57;;;;;;;1.48;0.20;;;;;;;;;;5088414;28;20047;-50
2021/07/07 03:10:22;;;;;;;1.23;0.20;;;;;;;;;;5086306;28;20032;-49
2021/07/07 03:12:47;;;;;;;0.55;0.30;;;;;;;;;;5086677;28;20494;-51
2021/07/07 03:15:12;;;;;;;0.80;0.30;;;;;;;;;;5085509;28;20387;-54
2021/07/07 03:17:38;;;;;;;3.03;0.40;;;;;;;;;;5075958;28;20484;-52
2021/07/07 03:20:04;;;;;;;1.23;0.30;;;;;;;;;;5087009;28;20443;-48
2021/07/07 03:22:29;;;;;;;2.75;0.30;;;;;;;;;;5073471;28;20035;-52
2021/07/07 03:24:54;;;;;;;2.10;0.30;;;;;;;;;;5082039;28;20025;-51
2021/07/07 03:27:20;;;;;;;0.70;0.30;;;;;;;;;;5085042;28;20506;-49
2021/07/07 03:29:45;;;;;;;1.42;0.30;;;;;;;;;;5084432;28;20039;-52
2021/07/07 03:32:10;;;;;;;0.68;0.20;;;;;;;;;;5081786;28;20023;-54
2021/07/07 03:34:35;;;;;;;0.93;0.30;;;;;;;;;;5089229;28;20023;-50
2021/07/07 03:37:00;;;;;;;0.43;0.30;;;;;;;;;;5090675;28;20054;-54
2021/07/07 03:39:26;;;;;;;0.52;0.40;;;;;;;;;;5089782;28;20020;-53
2021/07/07 03:41:51;;;;;;;0.47;0.20;;;;;;;;;;5087768;28;20095;-55
2021/07/07 03:44:16;;;;;;;1.95;0.30;;;;;;;;;;5077034;28;20031;-52
2021/07/07 03:46:41;;;;;;;0.73;0.30;;;;;;;;;;5085642;28;20050;-54
2021/07/07 03:49:07;;;;;;;1.50;0.30;;;;;;;;;;5086471;28;20098;-50
2021/07/07 03:51:32;;;;;;;0.93;0.30;;;;;;;;;;5077556;28;20047;-51
2021/07/07 03:53:57;;;;;;;1.67;0.35;;;;;;;;;;5089572;28;20078;-52
2021/07/07 03:56:22;;;;;;;1.00;0.57;;;;;;;;;;5091798;28;20020;-51
2021/07/07 03:58:48;;;;;;;1.38;0.50;;;;;;;;;;5090826;28;20030;-52
2021/07/07 04:01:13;;;;;;;0.45;0.40;;;;;;;;;;5088565;28;20040;-53
2021/07/07 04:03:38;;;;;;;4.00;0.40;;;;;;;;;;5079242;28;20123;-51
2021/07/07 04:06:04;;;;;;;1.38;0.30;;;;;;;;;;5073674;28;20037;-53
2021/07/07 04:08:29;;;;;;;1.58;0.50;;;;;;;;;;5075871;28;20460;-53
2021/07/07 04:10:54;;;;;;;0.88;0.57;;;;;;;;;;5088063;28;20345;-53
2021/07/07 04:13:19;;;;;;;1.77;0.50;;;;;;;;;;5085482;28;20012;-51
2021/07/07 04:15:44;;;;;;;2.28;0.47;;;;;;;;;;5086984;28;20046;-51
2021/07/07 04:18:10;;;;;;;2.47;0.60;;;;;;;;;;5091975;28;20463;-51
2021/07/07 04:20:35;;;;;;;1.48;0.50;;;;;;;;;;5086977;28;20533;-52
2021/07/07 04:23:00;;;;;;;0.93;0.50;;;;;;;;;;5087022;28;20032;-53
2021/07/07 04:25:26;;;;;;;2.00;0.63;;;;;;;;;;5087913;28;20098;-49
2021/07/07 04:27:51;;;;;;;1.42;0.50;;;;;;;;;;5095322;28;20122;-52
2021/07/07 04:30:18;;;;;;;1.20;0.90;;;;;;;;;;5093023;28;20028;-51
2021/07/07 04:32:43;;;;;;;1.42;1.08;;;;;;;;;;5088106;28;20103;-48
2021/07/07 04:35:09;;;;;;;1.20;0.98;;;;;;;;;;5090111;28;20102;-52
2021/07/07 04:37:35;;;;;;;2.78;0.90;;;;;;;;;;5093240;28;20016;-52
2021/07/07 04:40:00;;;;;;;1.02;0.60;;;;;;;;;;5090010;28;20042;-51
2021/07/07 04:42:25;;;;;;;1.27;0.80;;;;;;;;;;5083389;28;20394;-53
2021/07/07 04:44:51;;;;;;;0.75;0.70;;;;;;;;;;5086435;28;20039;-50
2021/07/07 04:47:16;;;;;;;2.85;0.80;;;;;;;;;;5086076;28;20016;-51
2021/07/07 04:49:41;;;;;;;2.88;1.00;;;;;;;;;;5077183;28;20468;-51
2021/07/07 04:52:06;;;;;;;0.95;0.65;;;;;;;;;;5075370;28;20099;-51
2021/07/07 04:54:32;;;;;;;2.22;1.20;;;;;;;;;;5085150;28;20055;-51
2021/07/07 04:56:57;;;;;;;1.33;1.00;;;;;;;;;;5085708;28;20012;-51
2021/07/07 04:59:23;;;;;;;1.90;1.00;;;;;;;;;;5085093;28;20470;-48
2021/07/07 05:01:48;;;;;;;1.25;0.85;;;;;;;;;;5085555;28;20447;-50
2021/07/07 05:04:13;;;;;;;2.25;1.13;;;;;;;;;;5085192;28;20127;-50
2021/07/07 05:06:38;;;;;;;2.25;0.95;;;;;;;;;;5088564;28;20464;-52
2021/07/07 05:09:04;;;;;;;1.75;1.20;;;;;;;;;;5087450;28;20529;-50
2021/07/07 05:11:29;;;;;;;1.33;1.23;;;;;;;;;;5075686;28;20448;-54
2021/07/07 05:13:54;;;;;;;1.17;0.85;;;;;;;;;;5087656;28;20019;-51
2021/07/07 05:16:20;;;;;;;2.00;1.77;;;;;;;;;;5092343;28;20017;-53
2021/07/07 05:18:47;;;;;;;1.58;1.48;;;;;;;;;;5090484;28;20369;-54
2021/07/07 05:21:12;;;;;;;2.65;1.60;;;;;;;;;;5085526;28;20031;-49
2021/07/07 05:23:38;;;;;;;1.80;1.58;;;;;;;;;;5087661;28;20020;-52
2021/07/07 05:26:04;;;;;;;2.65;1.45;;;;;;;;;;5077673;28;20016;-53
2021/07/07 05:28:29;;;;;;;2.08;1.05;;;;;;;;;;5085854;28;20020;-53
2021/07/07 05:30:57;;;;;;;3.53;1.40;;;;;;;;;;5089353;28;20538;-52
2021/07/07 05:33:23;;;;;;;2.88;1.27;;;;;;;;;;5094069;28;20535;-50
2021/07/07 05:35:48;;;;;;;3.45;1.42;;;;;;;;;;5092178;28;20157;-52
2021/07/07 05:38:13;;;;;;;2.50;1.40;;;;;;;;;;5090037;28;20012;-52
2021/07/07 05:40:38;;;;;;;1.85;1.45;;;;;;;;;;5089624;28;20269;-52
2021/07/07 05:43:04;;;;;;;3.53;1.05;;;;;;;;;;5085665;28;20042;-53
2021/07/07 05:45:29;;;;;;;1.92;1.20;;;;;;;;;;5086469;28;20019;-51
2021/07/07 05:47:55;;;;;;;2.88;1.52;;;;;;;;;;5091546;28;20051;-53
2021/07/07 05:50:20;;;;;;;1.35;0.90;;;;;;;;;;5080696;28;20479;-50
2021/07/07 05:52:45;;;;;;;1.67;1.25;;;;;;;;;;5083439;28;20039;-51
2021/07/07 05:55:11;;;;;;;1.33;0.90;;;;;;;;;;5088403;28;20023;-52
2021/07/07 05:57:37;;;;;;;2.42;1.08;;;;;;;;;;5086487;28;20009;-52
2021/07/07 06:00:08;;;;;;;2.03;0.82;;;;;;;;;;5090460;28;20147;-55
2021/07/07 06:02:33;;;;;;;1.80;0.70;;;;;;;;;;5077141;28;20045;-49
2021/07/07 06:04:58;;;;;;;1.10;0.73;;;;;;;;;;5089527;28;20506;-51
2021/07/07 06:07:24;;;;;;;1.85;1.27;;;;;;;;;;5087323;28;20028;-51
2021/07/07 06:09:49;;;;;;;1.90;0.90;;;;;;;;;;5088841;28;20024;-49
2021/07/07 06:12:14;;;;;;;2.38;1.25;;;;;;;;;;5084785;28;20019;-53
2021/07/07 06:14:39;;;;;;;1.40;0.80;;;;;;;;;;5092181;28;20020;-54
2021/07/07 06:17:04;;;;;;;0.75;0.73;;;;;;;;;;5083388;28;20020;-50
2021/07/07 06:19:30;;;;;;;1.95;1.20;;;;;;;;;;5085801;28;20020;-52
2021/07/07 06:21:57;;;;;;;4.20;1.60;;;;;;;;;;5083654;28;20027;-50
2021/07/07 06:24:22;;;;;;;2.03;1.70;;;;;;;;;;5082679;28;20024;-49
2021/07/07 06:26:47;;;;;;;3.00;1.88;;;;;;;;;;5081593;28;20054;-53
2021/07/07 06:29:14;;;;;;;2.80;2.60;;;;;;;;;;5083655;28;20020;-50
2021/07/07 06:31:39;;;;;;;2.58;1.88;;;;;;;;;;5080526;28;20008;-51
2021/07/07 06:34:05;;;;;;;1.73;1.23;;;;;;;;;;5083453;28;20418;-51
2021/07/07 06:36:30;;;;;;;1.13;0.90;;;;;;;;;;5082391;28;20482;-52
2021/07/07 06:38:55;;;;;;;2.45;1.42;;;;;;;;;;5081095;28;20023;-52
2021/07/07 06:41:20;;;;;;;2.80;1.88;;;;;;;;;;5080556;28;20388;-51
2021/07/07 06:43:46;;;;;;;2.85;1.65;;;;;;;;;;5082079;28;20082;-48
2021/07/07 06:46:11;;;;;;;4.13;3.40;;;;;;;;;;5080818;28;20031;-49
2021/07/07 06:48:36;;;;;;;3.90;3.53;;;;;;;;;;5079219;28;20115;-50
2021/07/07 06:51:02;;;;;;;3.60;3.30;;;;;;;;;;5073074;28;20534;-52
2021/07/07 06:53:27;;;;;;;3.97;3.67;;;;;;;;;;5074300;28;20008;-53
2021/07/07 06:55:52;;;;;;;3.58;2.67;;;;;;;;;;5077105;28;20356;-53
2021/07/07 06:58:18;;;;;;;1.90;1.80;;;;;;;;;;5073452;28;20108;-50
2021/07/07 07:00:43;;;;;;;2.70;1.67;;;;;;;;;;5079066;28;20063;-53
2021/07/07 07:03:08;;;;;;;1.65;1.38;;;;;;;;;;5079368;28;20067;-53
2021/07/07 07:05:34;;;;;;;1.25;1.15;;;;;;;;;;5075755;28;20077;-55
2021/07/07 07:08:00;;;;;;;2.35;1.52;;;;;;;;;;5087558;28;20016;-54
2021/07/07 07:10:25;;;;;;;2.47;1.45;;;;;;;;;;5090019;28;20032;-52
2021/07/07 07:12:50;;;;;;;2.47;1.65;;;;;;;;;;5078196;28;20024;-55
2021/07/07 07:15:16;;;;;;;1.45;1.20;;;;;;;;;;5086286;28;20062;-48
2021/07/07 07:17:42;;;;;;;1.33;1.23;;;;;;;;;;5082702;28;20016;-53
2021/07/07 07:20:08;;;;;;;2.17;1.30;;;;;;;;;;5090538;28;20033;-54
2021/07/07 07:22:34;;;;;;;1.85;1.00;;;;;;;;;;5087252;28;20020;-54
2021/07/07 07:25:00;;;;;;;1.48;1.10;;;;;;;;;;5077221;28;20025;-51
2021/07/07 07:27:25;;;;;;;2.50;1.40;;;;;;;;;;5078035;28;20019;-54
2021/07/07 07:29:50;;;;;;;1.45;1.08;;;;;;;;;;5079298;28;20028;-52
2021/07/07 07:32:15;;;;;;;1.08;0.70;;;;;;;;;;5074391;28;20074;-46
2021/07/07 07:34:41;;;;;;;1.65;1.30;;;;;;;;;;5072484;28;20017;-53
2021/07/07 07:37:08;;;;;;;1.88;1.20;;;;;;;;;;5072189;28;20051;-52
2021/07/07 07:39:43;;;;;;;3.08;1.55;;;;;;;;;;5086061;28;20115;-53
2021/07/07 07:42:11;;;;;;;3.03;1.10;;;;;;;;;;5080746;28;20017;-52
2021/07/07 07:44:37;;;;;;;1.95;1.60;;;;;;;;;;5080874;28;20028;-54
2021/07/07 07:47:02;;;;;;;1.83;1.73;;;;;;;;;;5079658;28;20081;-54
2021/07/07 07:49:27;;;;;;;1.85;1.70;;;;;;;;;;5084388;28;20081;-53
2021/07/07 07:51:53;;;;;;;3.50;1.48;;;;;;;;;;5082068;28;20024;-51
2021/07/07 07:54:18;;;;;;;1.95;1.70;;;;;;;;;;5078506;28;20016;-53
2021/07/07 07:56:44;;;;;;;3.15;1.05;;;;;;;;;;5091264;28;20012;-51
2021/07/07 07:59:09;;;;;;;1.50;1.05;;;;;;;;;;5090957;28;20042;-53
2021/07/07 08:01:34;;;;;;;0.80;0.60;;;;;;;;;;5090951;28;20255;-53
2021/07/07 08:04:02;;;;;;;0.60;0.57;;;;;;;;;;5095740;28;20044;-49
2021/07/07 08:06:28;;;;;;;0.70;0.60;;;;;;;;;;5081115;28;20087;-52
2021/07/07 08:08:54;;;;;;;1.15;0.65;;;;;;;;;;5092969;28;20020;-49
2021/07/07 08:11:20;;;;;;;1.90;1.02;;;;;;;;;;5074599;28;20036;-46
2021/07/07 08:13:45;;;;;;;2.63;0.88;;;;;;;;;;5085057;28;20020;-54
2021/07/07 08:16:10;;;;;;;1.02;0.60;;;;;;;;;;5096254;28;20028;-51
2021/07/07 08:18:35;;;;;;;0.80;0.80;;;;;;;;;;5095924;28;20043;-52
2021/07/07 08:21:01;;;;;;;1.25;1.00;;;;;;;;;;5090426;28;20567;-53
2021/07/07 08:23:26;;;;;;;1.02;0.70;;;;;;;;;;5094962;28;20024;-53
2021/07/07 08:25:52;;;;;;;3.38;1.35;;;;;;;;;;5095077;28;20032;-52
2021/07/07 08:28:17;;;;;;;1.63;1.17;;;;;;;;;;5087119;28;20074;-53
2021/07/07 08:30:42;;;;;;;2.17;1.23;;;;;;;;;;5087487;28;20032;-51
2021/07/07 08:33:08;;;;;;;6.22;5.63;;;;;;;;;;5089393;28;20028;-50
2021/07/07 08:35:37;;;;;;;18.73;16.92;;;;;;;;;;5093448;28;20044;-53
2021/07/07 08:38:02;;;;;;;12.40;11.30;;;;;;;;;;5085384;28;20445;-50
2021/07/07 08:40:28;;;;;;;8.88;8.05;;;;;;;;;;5086910;28;20102;-54
2021/07/07 08:42:54;;;;;;;9.55;8.63;;;;;;;;;;5093592;28;20020;-53
2021/07/07 08:45:19;;;;;;;3.80;3.50;;;;;;;;;;5079615;28;20472;-55
2021/07/07 08:47:45;;;;;;;3.33;2.45;;;;;;;;;;5082553;28;20036;-52
2021/07/07 08:50:12;;;;;;;1.67;1.17;;;;;;;;;;5082697;28;20159;-50
2021/07/07 08:52:38;;;;;;;0.93;0.70;;;;;;;;;;5072935;28;20078;-52
2021/07/07 08:55:04;;;;;;;1.15;0.60;;;;;;;;;;5081422;28;20498;-50
2021/07/07 08:57:29;;;;;;;1.25;0.60;;;;;;;;;;5083605;28;20024;-52
2021/07/07 08:59:54;;;;;;;0.70;0.50;;;;;;;;;;5079993;28;20529;-54
2021/07/07 09:02:20;;;;;;;2.03;1.83;;;;;;;;;;5076812;28;20027;-54
2021/07/07 09:04:45;;;;;;;2.63;2.45;;;;;;;;;;5085411;28;20039;-54
2021/07/07 09:07:14;;;;;;;2.25;2.05;;;;;;;;;;5093536;28;20069;-51
2021/07/07 09:09:43;;;;;;;0.90;0.90;;;;;;;;;;5083019;28;20113;-54
2021/07/07 09:12:24;;;;;;;1.40;1.30;;;;;;;;;;5077746;28;20463;-53
2021/07/07 09:14:51;;;;;;;2.03;1.92;;;;;;;;;;5085318;28;20073;-53
2021/07/07 09:17:18;;;;;;;1.50;0.90;;;;;;;;;;5090944;28;20012;-54
2021/07/07 09:19:44;;;;;;;1.83;1.73;;;;;;;;;;5085130;28;20036;-53
2021/07/07 09:22:11;;;;;;;1.67;1.58;;;;;;;;;;5076684;28;20031;-53
2021/07/07 09:24:37;;;;;;;1.38;1.15;;;;;;;;;;5092655;28;20161;-49
2021/07/07 09:27:10;;;;;;;5.75;4.65;;;;;;;;;;5085841;28;20034;-53
2021/07/07 09:29:55;;;;;;;1.20;0.98;;;;;;;;;;5085270;28;20012;-53
2021/07/07 09:32:20;;;;;;;1.00;1.00;;;;;;;;;;5080929;28;20103;-53
2021/07/07 09:34:48;;;;;;;0.88;0.70;;;;;;;;;;5076423;28;20536;-50
2021/07/07 09:37:45;;;;;;;1.52;0.65;;;;;;;;;;5090748;28;20048;-54
2021/07/07 09:40:11;;;;;;;0.70;0.70;;;;;;;;;;5081743;28;20031;-49
2021/07/07 09:42:40;;;;;;;0.55;0.43;;;;;;;;;;5082612;28;20024;-53
2021/07/07 09:45:07;;;;;;;1.02;0.50;;;;;;;;;;5082966;28;20019;-50
2021/07/07 09:47:33;;;;;;;0.88;0.65;;;;;;;;;;5086352;28;20035;-53
2021/07/07 09:49:59;;;;;;;0.70;0.45;;;;;;;;;;5083233;28;20021;-52
2021/07/07 09:52:25;;;;;;;0.88;0.50;;;;;;;;;;5081703;28;20455;-47
2021/07/07 09:54:51;;;;;;;0.68;0.50;;;;;;;;;;5086859;28;20016;-54
2021/07/07 09:57:17;;;;;;;0.50;0.40;;;;;;;;;;5085862;28;20012;-49
2021/07/07 09:59:42;;;;;;;0.52;0.40;;;;;;;;;;5080392;28;20048;-52
2021/07/07 10:02:07;;;;;;;1.67;0.80;;;;;;;;;;5086545;28;20031;-52
2021/07/07 10:04:34;;;;;;;0.60;0.50;;;;;;;;;;5085874;28;20444;-49
2021/07/07 10:07:02;;;;;;;0.52;0.40;;;;;;;;;;5091224;28;20018;-54
2021/07/07 10:09:28;;;;;;;0.75;0.75;;;;;;;;;;5077108;28;20073;-53
2021/07/07 10:11:56;;;;;;;1.77;0.50;;;;;;;;;;5073639;28;20435;-52
2021/07/07 10:14:22;;;;;;;0.52;0.52;;;;;;;;;;5083078;28;20024;-51
2021/07/07 10:16:48;;;;;;;3.03;0.50;;;;;;;;;;5075362;28;20021;-55
2021/07/07 10:19:15;;;;;;;2.30;0.30;;;;;;;;;;5085410;28;20484;-55
2021/07/07 10:21:41;;;;;;;0.60;0.30;;;;;;;;;;5082897;28;20073;-53
2021/07/07 10:24:07;;;;;;;0.80;0.50;;;;;;;;;;5079025;28;20024;-52
2021/07/07 10:26:32;;;;;;;0.90;0.40;;;;;;;;;;5085484;28;20062;-55
2021/07/07 10:28:58;;;;;;;0.63;0.60;;;;;;;;;;5088033;28;20024;-52
2021/07/07 10:31:27;;;;;;;2.58;0.98;;;;;;;;;;5081893;28;20092;-55
2021/07/07 10:33:59;;;;;;;1.70;0.57;;;;;;;;;;5076581;28;20020;-53
2021/07/07 10:36:28;;;;;;;0.52;0.52;;;;;;;;;;5074646;28;20023;-50
2021/07/07 10:38:54;;;;;;;2.35;0.40;;;;;;;;;;5084924;28;20031;-52
2021/07/07 10:41:38;;;;;;;0.70;0.40;;;;;;;;;;5079802;28;20016;-53
2021/07/07 10:44:04;;;;;;;0.85;0.47;;;;;;;;;;5090383;28;20058;-50
2021/07/07 10:46:49;;;;;;;1.15;0.40;;;;;;;;;;5081289;28;20121;-52
2021/07/07 10:49:25;;;;;;;1.25;0.30;;;;;;;;;;5087277;28;20032;-51
2021/07/07 10:51:51;;;;;;;0.90;0.30;;;;;;;;;;5089317;28;20078;-53
2021/07/07 10:54:20;;;;;;;1.38;0.30;;;;;;;;;;5086385;28;20040;-52
2021/07/07 10:56:46;;;;;;;0.77;0.30;;;;;;;;;;5085902;28;20572;-54
2021/07/07 10:59:33;;;;;;;0.80;0.40;;;;;;;;;;5083069;28;20036;-55
2021/07/07 11:02:01;;;;;;;3.10;0.30;;;;;;;;;;5079985;28;20028;-50
2021/07/07 11:04:33;;;;;;;1.40;0.30;;;;;;;;;;5091205;28;20047;-52
2021/07/07 11:07:18;;;;;;;1.48;0.30;;;;;;;;;;5091922;28;20035;-54
2021/07/07 11:09:44;;;;;;;;;;;;;;;;;;5088784;28;20028;-53
2021/07/07 11:12:09;;;;;;;0.52;0.40;;;;;;;;;;5084208;28;19907;-55
2021/07/07 11:14:35;;;;;;;1.40;0.30;;;;;;;;;;5077688;28;20020;-53
2021/07/07 11:17:01;;;;;;;1.17;0.30;;;;;;;;;;5078507;28;20020;-53
2021/07/07 11:19:47;;;;;;;0.77;0.20;;;;;;;;;;5084987;28;20020;-51
2021/07/07 11:22:13;;;;;;;1.33;0.20;;;;;;;;;;5081435;28;20035;-54
2021/07/07 11:24:42;;;;;;;0.38;0.20;;;;;;;;;;5084957;28;20415;-53
2021/07/07 11:27:07;;;;;;;0.43;0.20;;;;;;;;;;5083492;28;20016;-54
2021/07/07 11:29:33;;;;;;;1.20;0.30;;;;;;;;;;5085476;28;20032;-52
2021/07/07 11:31:58;;;;;;;0.38;0.20;;;;;;;;;;5083190;28;20048;-52
2021/07/07 11:34:23;;;;;;;0.88;0.20;;;;;;;;;;5083685;28;20084;-53
2021/07/07 11:36:49;;;;;;;0.45;0.20;;;;;;;;;;5082131;28;20023;-51
2021/07/07 11:39:19;;;;;;;0.10;0.10;;;;;;;;;;5079586;28;20012;-50
2021/07/07 11:41:45;;;;;;;1.77;0.20;;;;;;;;;;5086049;28;20558;-52
2021/07/07 11:44:11;;;;;;;0.97;0.30;;;;;;;;;;5090757;28;20138;-54
2021/07/07 11:46:36;;;;;;;0.32;0.20;;;;;;;;;;5090364;28;20348;-56
2021/07/07 11:49:09;;;;;;;1.10;0.20;;;;;;;;;;5084857;28;20020;-54
2021/07/07 11:51:38;;;;;;;0.50;0.20;;;;;;;;;;5072177;28;20274;-50
2021/07/07 11:54:03;;;;;;;0.35;0.20;;;;;;;;;;5073836;28;20027;-55
2021/07/07 11:56:30;;;;;;;0.40;0.20;;;;;;;;;;5079384;28;20016;-52
2021/07/07 11:58:56;;;;;;;0.50;0.30;;;;;;;;;;5087469;28;20012;-52
2021/07/07 12:01:22;;;;;;;1.17;0.20;;;;;;;;;;5085478;28;20031;-53
2021/07/07 12:04:03;;;;;;;1.27;0.20;;;;;;;;;;5084171;28;20123;-54
2021/07/07 12:06:30;;;;;;;1.15;0.30;;;;;;;;;;5072675;28;20024;-53
2021/07/07 12:08:56;;;;;;;1.77;0.40;;;;;;;;;;5075423;28;20533;-49
2021/07/07 12:11:23;;;;;;;1.55;0.30;;;;;;;;;;5081455;28;20028;-53
2021/07/07 12:13:49;;;;;;;1.35;0.32;;;;;;;;;;5083608;28;20016;-53
2021/07/07 12:16:47;;;;;;;0.80;0.32;;;;;;;;;;5082739;28;20024;-53
2021/07/07 12:19:13;;;;;;;0.80;0.20;;;;;;;;;;5066940;28;20029;-53
2021/07/07 12:21:44;;;;;;;0.45;0.30;;;;;;;;;;5082700;28;20098;-52
2021/07/07 12:24:11;;;;;;;2.75;0.43;;;;;;;;;;5102547;28;20024;-52
2021/07/07 12:26:37;;;;;;;2.35;0.30;;;;;;;;;;5087901;28;20024;-53
2021/07/07 12:29:03;;;;;;;1.00;0.30;;;;;;;;;;5077001;28;20061;-53
2021/07/07 12:31:35;;;;;;;1.98;0.30;;;;;;;;;;5077680;28;20026;-54
2021/07/07 12:34:01;;;;;;;2.05;0.30;;;;;;;;;;5078390;28;20035;-53
2021/07/07 12:36:27;;;;;;;1.98;0.30;;;;;;;;;;5074638;28;20020;-54
2021/07/07 12:38:53;;;;;;;0.68;0.22;;;;;;;;;;5088960;28;20375;-53
2021/07/07 12:41:19;;;;;;;0.70;0.20;;;;;;;;;;5085238;28;20024;-54
2021/07/07 12:46:31;;;;;;;0.40;0.28;;;;;;;;;;5084167;28;20035;-55
2021/07/07 12:48:56;;;;;;;1.00;0.40;;;;;;;;;;5088734;28;20027;-54
2021/07/07 12:51:29;;;;;;;1.47;0.20;;;;;;;;;;5071786;28;20453;-52
2021/07/07 12:53:55;;;;;;;2.67;0.20;;;;;;;;;;5087336;28;20519;-53
2021/07/07 12:56:21;;;;;;;0.90;0.20;;;;;;;;;;5093142;28;20110;-54
2021/07/07 12:59:06;;;;;;;0.70;0.25;;;;;;;;;;5084470;28;20103;-52
2021/07/07 13:01:31;;;;;;;1.05;0.20;;;;;;;;;;5080326;28;20025;-55
2021/07/07 13:03:56;;;;;;;0.73;0.20;;;;;;;;;;5089194;28;20054;-56
2021/07/07 13:06:23;;;;;;;1.20;0.20;;;;;;;;;;5086712;28;20285;-54
2021/07/07 13:08:49;;;;;;;0.90;0.30;;;;;;;;;;5092903;28;20273;-55
2021/07/07 13:11:25;;;;;;;0.52;0.40;;;;;;;;;;5088241;28;20094;-53
2021/07/07 13:13:52;;;;;;;0.43;0.30;;;;;;;;;;5074635;28;20028;-52
2021/07/07 13:16:19;;;;;;;2.13;0.47;;;;;;;;;;5083612;28;20055;-51
2021/07/07 13:18:58;;;;;;;0.98;0.30;;;;;;;;;;5081028;28;20024;-50
2021/07/07 13:21:35;;;;;;;0.95;0.30;;;;;;;;;;5080026;28;21398;-52
2021/07/07 13:24:02;;;;;;;0.30;0.30;;;;;;;;;;5086047;28;20090;-52
2021/07/07 13:26:47;;;;;;;1.10;0.20;;;;;;;;;;5089020;28;20070;-53
2021/07/07 13:29:16;;;;;;;1.40;0.22;;;;;;;;;;5071817;28;20093;-54
2021/07/07 13:31:42;;;;;;;1.25;0.20;;;;;;;;;;5082051;28;20489;-50
2021/07/07 13:34:07;;;;;;;1.10;0.20;;;;;;;;;;5080859;28;20017;-51
2021/07/07 13:36:36;;;;;;;0.27;0.10;;;;;;;;;;5084348;28;20017;-51
2021/07/07 13:39:08;;;;;;;0.88;0.15;;;;;;;;;;5082866;28;20023;-55
2021/07/07 13:41:33;;;;;;;0.30;0.10;;;;;;;;;;5079438;28;20019;-53
2021/07/07 13:43:59;;;;;;;0.13;0.10;;;;;;;;;;5093425;28;20020;-52
2021/07/07 13:46:24;;;;;;;1.07;0.20;;;;;;;;;;5093726;28;20055;-55
2021/07/07 13:48:49;;;;;;;0.80;0.10;;;;;;;;;;5081854;28;20048;-54
2021/07/07 13:51:14;;;;;;;0.60;0.23;;;;;;;;;;5087537;28;20056;-51
2021/07/07 13:53:39;;;;;;;1.30;0.20;;;;;;;;;;5092552;28;20043;-54
2021/07/07 13:56:05;;;;;;;0.60;0.10;;;;;;;;;;5093077;28;20020;-52
2021/07/07 13:58:30;;;;;;;0.30;0.20;;;;;;;;;;5088632;28;20020;-54
2021/07/07 14:00:55;;;;;;;1.07;0.20;;;;;;;;;;5070632;28;20267;-52
2021/07/07 14:03:20;;;;;;;0.50;0.10;;;;;;;;;;5087870;28;20055;-53
2021/07/07 14:05:46;;;;;;;0.80;0.10;;;;;;;;;;5091835;28;20115;-53
2021/07/07 14:08:12;;;;;;;0.10;0.10;;;;;;;;;;5089194;28;20028;-54
2021/07/07 14:10:38;;;;;;;1.05;0.20;;;;;;;;;;5089561;28;20028;-52
2021/07/07 14:13:03;;;;;;;0.53;0.20;;;;;;;;;;5088084;28;20486;-54
2021/07/07 14:15:28;;;;;;;0.45;0.10;;;;;;;;;;5092573;28;20107;-53
2021/07/07 14:17:53;;;;;;;0.87;0.10;;;;;;;;;;5087607;28;20019;-51
2021/07/07 14:20:19;;;;;;;2.17;0.13;;;;;;;;;;5088852;28;20024;-51
2021/07/07 14:22:44;;;;;;;0.23;0.10;;;;;;;;;;5089154;28;20028;-49
2021/07/07 14:25:09;;;;;;;0.53;0.10;;;;;;;;;;5090257;28;20615;-52
2021/07/07 14:27:34;;;;;;;0.30;0.20;;;;;;;;;;5091494;28;20507;-55
2021/07/07 14:30:00;;;;;;;0.47;0.20;;;;;;;;;;5078170;28;20066;-55
2021/07/07 14:32:25;;;;;;;0.93;0.20;;;;;;;;;;5080849;28;20013;-55
2021/07/07 14:34:50;;;;;;;0.30;0.10;;;;;;;;;;5076596;28;20274;-52
2021/07/07 14:37:15;;;;;;;0.55;0.10;;;;;;;;;;5087056;28;20028;-55
2021/07/07 14:39:41;;;;;;;1.13;0.20;;;;;;;;;;5089960;28;20059;-54
2021/07/07 14:42:06;;;;;;;0.52;0.10;;;;;;;;;;5076477;28;20293;-54